Weather History for Cape Cod CGAS, MA

Change the Weather History Date:

Friday, February 28, 2014

  Actual Average Record
Temperature  
Mean Temperature 15 °F -  
Max Temperature 24 °F 40 °F 53 °F (1998)
Min Temperature 6 °F 23 °F 6 °F (2006)
Degree Days  
Heating Degree Days 50    
Moisture  
Dew Point -4 °F    
Average Humidity 42    
Maximum Humidity 79    
Minimum Humidity 16    
Precipitation  
Precipitation 0.00 in - - ()
Sea Level Pressure  
Sea Level Pressure 30.25 in    
Wind  
Wind Speed 13 mph (West)    
Max Wind Speed 25 mph    
Max Gust Speed 33 mph    
Visibility 10 miles    
Events      
Averages and records for this station are not official NWS values.
T = Trace of Precipitation, MM = Missing Value Source: NWS Daily Summary

Daily Weather History Graph

Daily Weather History Graph

Search for Another Location

Airport:

Trip Planner

Search our weather history database for the weather conditions in past years. The results will help you decide how hot, cold, wet, or windy it might be!

Date:

Astronomy

Feb. 28, 2014 Rise Set
Actual Time 6:18 AM EST 5:31 PM EST
Civil Twilight 5:50 AM EST 5:59 PM EST
Nautical Twilight 5:18 AM EST 6:31 PM EST
Astronomical Twilight 4:46 AM EST 7:03 PM EST
Moon 5:31 AM EST (2/28) 5:04 PM EST (2/28)
Length of Visible Light 12h 08m
Length of Day
11h 12m
Waning Crescent, 1% of the Moon is Illuminated
Feb 28
Waning Crescent
Mar 1
New
Mar 8
First Quarter
Mar 16
Full
Mar 23
Last Quarter

Hourly Weather History & Observations

Time (EST) Temp. Windchill Dew Point Humidity Pressure Visibility Wind Dir Wind Speed Gust Speed Precip Events Conditions
12:15 AM 17.6 °F 3.7 °F -2.2 °F 42% 29.90 in 10.0 mi WNW 13.8 mph 32.2 mph N/A   Overcast
12:35 AM 15.8 °F -1.9 °F -4.0 °F 41% 29.92 in 10.0 mi WNW 21.9 mph 32.2 mph N/A   Mostly Cloudy
12:55 AM 15.8 °F -0.6 °F -5.8 °F 38% 29.94 in 10.0 mi WNW 18.4 mph 25.3 mph N/A   Partly Cloudy
1:15 AM 14.0 °F -1.4 °F -5.8 °F 41% 29.95 in 10.0 mi WNW 15.0 mph 26.5 mph N/A   Partly Cloudy
1:35 AM 14.0 °F -3.4 °F -5.8 °F 41% 29.97 in 10.0 mi West 19.6 mph 29.9 mph N/A   Clear
1:55 AM 14.0 °F -5.5 °F -5.8 °F 41% 29.98 in 10.0 mi West 25.3 mph 33.4 mph N/A   Clear
2:15 AM 12.2 °F -6.7 °F -5.8 °F 45% 29.99 in 10.0 mi WNW 21.9 mph 27.6 mph N/A   Clear
2:35 AM 12.2 °F -4.8 °F -5.8 °F 45% 29.99 in 10.0 mi WNW 17.3 mph - N/A   Clear
2:55 AM 12.2 °F -6.3 °F -7.6 °F 41% 30.00 in 10.0 mi NW 20.7 mph 28.8 mph N/A   Clear
3:15 AM 12.2 °F -3.7 °F -5.8 °F 45% 30.01 in 10.0 mi WNW 15.0 mph 23.0 mph N/A   Clear
3:35 AM 10.4 °F -7.2 °F -5.8 °F 48% 30.03 in 10.0 mi WNW 17.3 mph 24.2 mph N/A   Clear
3:55 AM 10.4 °F -6.6 °F -7.6 °F 44% 30.03 in 10.0 mi WNW 16.1 mph 28.8 mph N/A   Clear
4:15 AM 10.4 °F -8.2 °F -5.8 °F 48% 30.05 in 10.0 mi WNW 19.6 mph 26.5 mph N/A   Clear
4:35 AM 10.4 °F -6.6 °F -7.6 °F 44% 30.07 in 10.0 mi WNW 16.1 mph 31.1 mph N/A   Clear
4:55 AM 10.4 °F -8.6 °F -5.8 °F 48% 30.08 in 10.0 mi WNW 20.7 mph 31.1 mph N/A   Clear
5:15 AM 10.4 °F -6.0 °F -5.8 °F 48% 30.10 in 10.0 mi WNW 15.0 mph 32.2 mph N/A   Clear
5:35 AM 10.4 °F -8.6 °F -5.8 °F 48% 30.11 in 10.0 mi WNW 20.7 mph 31.1 mph N/A   Clear
5:55 AM 10.4 °F -7.7 °F -5.8 °F 48% 30.12 in 10.0 mi WNW 18.4 mph 28.8 mph N/A   Clear
6:15 AM 8.6 °F -11.0 °F -5.8 °F 52% 30.13 in 10.0 mi WNW 20.7 mph 27.6 mph N/A   Clear
6:35 AM 8.6 °F -7.7 °F -5.8 °F 52% 30.15 in 10.0 mi WNW 13.8 mph 26.5 mph N/A   Clear
6:55 AM 10.4 °F -6.6 °F -5.8 °F 48% 30.17 in 10.0 mi WNW 16.1 mph 21.9 mph N/A   Clear
7:15 AM 10.4 °F -7.7 °F -5.8 °F 48% 30.18 in 10.0 mi WNW 18.4 mph 25.3 mph N/A   Clear
7:35 AM 10.4 °F -7.2 °F -5.8 °F 48% 30.20 in 10.0 mi WNW 17.3 mph 25.3 mph N/A   Clear
7:55 AM 12.2 °F -4.3 °F -5.8 °F 45% 30.20 in 10.0 mi NW 16.1 mph 24.2 mph N/A   Clear
8:15 AM 12.2 °F -1.8 °F -5.8 °F 45% 30.22 in 10.0 mi NW 11.5 mph 19.6 mph N/A   Clear
8:35 AM 14.0 °F -0.8 °F -5.8 °F 41% 30.23 in 10.0 mi NW 13.8 mph 21.9 mph N/A   Clear
8:55 AM 14.0 °F -0.8 °F -5.8 °F 41% 30.23 in 10.0 mi NW 13.8 mph - N/A   Clear
9:15 AM 15.8 °F 1.4 °F -5.8 °F 38% 30.24 in 10.0 mi WNW 13.8 mph - N/A   Clear
9:35 AM 17.6 °F 5.0 °F -5.8 °F 35% 30.25 in 10.0 mi WNW 11.5 mph 19.6 mph N/A   Clear
9:55 AM 17.6 °F 5.0 °F -5.8 °F 35% 30.26 in 10.0 mi NW 11.5 mph 18.4 mph N/A   Clear
10:15 AM 19.4 °F 9.5 °F -4.0 °F 36% 30.28 in 10.0 mi WNW 8.1 mph 13.8 mph N/A   Clear
10:35 AM 19.4 °F 8.6 °F -5.8 °F 33% 30.29 in 10.0 mi NW 9.2 mph 15.0 mph N/A   Clear
10:55 AM 19.4 °F 8.6 °F -5.8 °F 33% 30.29 in 10.0 mi NNW 9.2 mph - N/A   Clear
11:15 AM 21.2 °F 9.5 °F -5.8 °F 30% 30.30 in 10.0 mi WNW 11.5 mph - N/A   Clear
11:35 AM 23.0 °F 12.4 °F -7.6 °F 26% 30.30 in 10.0 mi NW 10.4 mph - N/A   Clear
11:55 AM 23.0 °F 14.7 °F -7.6 °F 26% 30.30 in 10.0 mi NNW 6.9 mph 16.1 mph N/A   Clear
12:15 PM 23.0 °F - -9.4 °F 24% 30.29 in 10.0 mi Calm Calm 15.0 mph N/A   Clear
12:35 PM 23.0 °F 12.4 °F -9.4 °F 24% 30.29 in 10.0 mi WNW 10.4 mph - N/A   Clear
12:55 PM 24.8 °F 15.3 °F -9.4 °F 22% 30.28 in 10.0 mi SW 9.2 mph - N/A   Clear
1:15 PM 24.8 °F 12.9 °F -11.2 °F 20% 30.28 in 10.0 mi WNW 13.8 mph - N/A   Clear
1:35 PM 24.8 °F 15.3 °F -11.2 °F 20% 30.29 in 10.0 mi WNW 9.2 mph - N/A   Clear
1:55 PM 24.8 °F 15.3 °F -9.4 °F 22% 30.30 in 10.0 mi WNW 9.2 mph - N/A   Clear
2:15 PM 24.8 °F 15.3 °F -11.2 °F 20% 30.31 in 10.0 mi West 9.2 mph 17.3 mph N/A   Clear
2:35 PM 24.8 °F 17.9 °F -9.4 °F 22% 30.31 in 10.0 mi Variable 5.8 mph 13.8 mph N/A   Clear
2:55 PM 24.8 °F 16.9 °F -9.4 °F 22% 30.32 in 10.0 mi West 6.9 mph - N/A   Clear
3:15 PM 24.8 °F 15.3 °F -7.6 °F 24% 30.33 in 10.0 mi WSW 9.2 mph 15.0 mph N/A   Clear
3:35 PM 24.8 °F 15.3 °F -5.8 °F 26% 30.33 in 10.0 mi SW 9.2 mph 15.0 mph N/A   Clear
3:55 PM 24.8 °F 16.1 °F -7.6 °F 24% 30.33 in 10.0 mi SW 8.1 mph - N/A   Clear
4:15 PM 24.8 °F 16.1 °F -7.6 °F 24% 30.34 in 10.0 mi WSW 8.1 mph - N/A   Clear
4:35 PM 23.0 °F 11.1 °F -2.2 °F 33% 30.35 in 10.0 mi SW 12.7 mph - N/A   Clear
4:55 PM 23.0 °F 13.1 °F -2.2 °F 33% 30.36 in 10.0 mi WSW 9.2 mph - N/A   Clear
5:15 PM 21.2 °F 11.7 °F -2.2 °F 36% 30.36 in 10.0 mi SW 8.1 mph - N/A   Partly Cloudy
5:35 PM 21.2 °F 11.7 °F -2.2 °F 36% 30.36 in 10.0 mi WSW 8.1 mph - N/A   Partly Cloudy
5:55 PM 19.4 °F 9.5 °F -0.4 °F 42% 30.36 in 10.0 mi SW 8.1 mph - N/A   Clear
6:15 PM 17.6 °F 9.3 °F -0.4 °F 45% 30.37 in 10.0 mi SSW 5.8 mph - N/A   Clear
6:35 PM 17.6 °F 9.3 °F -0.4 °F 45% 30.37 in 10.0 mi SSW 5.8 mph - N/A   Clear
6:55 PM 17.6 °F 9.3 °F 1.4 °F 49% 30.38 in 10.0 mi SSW 5.8 mph - N/A   Clear
7:15 PM 17.6 °F 10.7 °F 1.4 °F 49% 30.38 in 10.0 mi SSW 4.6 mph - N/A   Clear
7:35 PM 17.6 °F 10.7 °F 1.4 °F 49% 30.39 in 10.0 mi SSW 4.6 mph - N/A   Clear
7:55 PM 15.8 °F 7.2 °F 1.4 °F 53% 30.39 in 10.0 mi SSW 5.8 mph - N/A   Partly Cloudy
8:15 PM 15.8 °F 7.2 °F 3.2 °F 58% 30.40 in 10.0 mi SW 5.8 mph - N/A   Partly Cloudy
8:35 PM 15.8 °F - 1.4 °F 53% 30.40 in 10.0 mi Calm Calm - N/A   Partly Cloudy
8:55 PM 15.8 °F - 1.4 °F 53% 30.41 in 10.0 mi Calm Calm - N/A   Partly Cloudy
9:15 PM 15.8 °F - 3.2 °F 58% 30.41 in 10.0 mi Calm Calm - N/A   Clear
9:35 PM 12.2 °F - 3.2 °F 67% 30.42 in 10.0 mi Calm Calm - N/A   Partly Cloudy
9:55 PM 10.4 °F - 3.2 °F 73% 30.42 in 10.0 mi Calm Calm - N/A   Clear
10:15 PM 10.4 °F 2.2 °F 3.2 °F 73% 30.42 in 10.0 mi NNW 4.6 mph - N/A   Clear
10:35 PM 12.2 °F 6.1 °F 3.2 °F 67% 30.42 in 10.0 mi North 3.5 mph - N/A   Clear
10:55 PM 10.4 °F - 3.2 °F 73% 30.43 in 10.0 mi Calm Calm - N/A   Clear
11:15 PM 8.6 °F - 3.2 °F 79% 30.43 in 10.0 mi Calm Calm - N/A   Clear
11:35 PM 6.8 °F - 1.4 °F 79% 30.43 in 10.0 mi Calm Calm - N/A   Clear
11:55 PM 8.6 °F - 3.2 °F 79% 30.43 in 10.0 mi Calm Calm - N/A   Clear